createdAt,value
2017-02-08T00:00:09.217Z,20.63
2017-02-08T00:00:49.717Z,20.63
2017-02-08T00:01:30.203Z,20.6
2017-02-08T00:02:10.710Z,20.64
2017-02-08T00:02:51.207Z,20.57
2017-02-08T00:03:31.695Z,20.66
2017-02-08T00:04:12.184Z,20.66
2017-02-08T00:04:52.675Z,20.58
2017-02-08T00:05:33.185Z,20.63
2017-02-08T00:06:13.670Z,20.64
2017-02-08T00:06:54.176Z,20.6
2017-02-08T00:07:34.685Z,20.66
2017-02-08T00:08:15.178Z,20.58
2017-02-08T00:08:55.673Z,20.67
2017-02-08T00:09:36.182Z,20.61
2017-02-08T00:10:16.713Z,20.64
2017-02-08T00:10:57.178Z,20.63
2017-02-08T00:11:37.662Z,20.63
2017-02-08T00:12:18.152Z,20.67
2017-02-08T00:12:58.650Z,20.6
2017-02-08T00:13:39.147Z,20.63
2017-02-08T00:14:19.637Z,20.6
2017-02-08T00:15:00.148Z,20.63
2017-02-08T00:15:40.634Z,20.63
2017-02-08T00:16:21.142Z,20.63
2017-02-08T00:17:01.621Z,20.57
2017-02-08T00:17:42.104Z,20.66
2017-02-08T00:18:22.590Z,20.64
2017-02-08T00:19:03.088Z,20.56
2017-02-08T00:19:43.592Z,20.61
2017-02-08T00:20:24.074Z,20.56
2017-02-08T00:21:04.567Z,20.54
2017-02-08T00:21:45.066Z,20.57
2017-02-08T00:22:25.557Z,20.57
2017-02-08T00:23:06.052Z,20.57
2017-02-08T00:23:46.551Z,20.58
2017-02-08T00:24:27.229Z,20.56
2017-02-08T00:25:07.687Z,20.61
2017-02-08T00:25:48.180Z,20.57
2017-02-08T00:26:28.687Z,20.61
2017-02-08T00:27:09.174Z,20.61
2017-02-08T00:27:49.667Z,20.66
2017-02-08T00:28:30.162Z,20.66
2017-02-08T00:29:10.647Z,20.64
2017-02-08T00:29:51.158Z,20.61
2017-02-08T00:30:31.650Z,20.64
2017-02-08T00:31:12.151Z,20.6
2017-02-08T00:31:52.661Z,20.61
2017-02-08T00:32:33.158Z,20.67
2017-02-08T00:33:13.642Z,20.66
2017-02-08T00:33:54.131Z,20.64
2017-02-08T00:34:34.622Z,20.66
2017-02-08T00:35:15.128Z,20.61
2017-02-08T00:35:55.615Z,20.57
2017-02-08T00:36:36.099Z,20.51
2017-02-08T00:37:16.603Z,20.57
2017-02-08T00:37:57.098Z,20.51
2017-02-08T00:38:37.601Z,20.53
2017-02-08T00:39:18.102Z,20.53
2017-02-08T00:39:58.605Z,20.53
2017-02-08T00:40:39.090Z,20.6
2017-02-08T00:41:19.590Z,20.57
2017-02-08T00:42:00.095Z,20.51
2017-02-08T00:42:40.596Z,20.58
2017-02-08T00:43:21.084Z,20.58
2017-02-08T00:44:01.581Z,20.66
2017-02-08T00:44:42.067Z,20.6
2017-02-08T00:45:22.560Z,20.66
2017-02-08T00:46:03.048Z,20.56
2017-02-08T00:46:43.545Z,20.58
2017-02-08T00:47:24.031Z,20.58
2017-02-08T00:48:04.558Z,20.42
2017-02-08T00:48:45.043Z,20.57
2017-02-08T00:49:25.525Z,20.54
2017-02-08T00:50:06.014Z,20.56
2017-02-08T00:50:46.507Z,20.49
2017-02-08T00:51:27.011Z,20.53
2017-02-08T00:52:07.491Z,20.58
2017-02-08T00:52:47.972Z,20.58
2017-02-08T00:53:28.458Z,20.54
2017-02-08T00:54:08.982Z,20.56
2017-02-08T00:54:49.450Z,20.57
2017-02-08T00:55:30.152Z,20.56
2017-02-08T00:56:10.657Z,20.57
2017-02-08T00:56:51.143Z,20.53
2017-02-08T00:57:31.639Z,20.53
2017-02-08T00:58:12.136Z,20.53
2017-02-08T00:58:52.639Z,20.58
2017-02-08T00:59:33.129Z,20.56
2017-02-08T01:00:13.629Z,20.58
2017-02-08T01:00:54.117Z,20.56
2017-02-08T01:01:34.621Z,20.54
2017-02-08T01:02:15.115Z,20.56
2017-02-08T01:02:55.619Z,20.58
2017-02-08T01:03:36.123Z,20.48
2017-02-08T01:04:16.629Z,20.51
2017-02-08T01:04:57.126Z,20.54
2017-02-08T01:05:37.611Z,20.56
2017-02-08T01:06:18.099Z,20.58
2017-02-08T01:06:58.586Z,20.61
2017-02-08T01:07:39.092Z,20.58
2017-02-08T01:08:19.578Z,20.56
2017-02-08T01:09:00.077Z,20.57
2017-02-08T01:09:40.573Z,20.54
2017-02-08T01:10:21.062Z,20.57
2017-02-08T01:11:01.539Z,20.57
2017-02-08T01:11:42.026Z,20.53
2017-02-08T01:12:22.519Z,20.56
2017-02-08T01:13:03.011Z,20.57
2017-02-08T01:13:43.518Z,20.57
2017-02-08T01:14:24.050Z,20.53
2017-02-08T01:15:04.502Z,20.53
2017-02-08T01:15:44.994Z,20.53
2017-02-08T01:16:25.469Z,20.51
2017-02-08T01:17:05.964Z,20.54
2017-02-08T01:17:46.464Z,20.56
2017-02-08T01:18:26.953Z,20.58
2017-02-08T01:19:07.451Z,20.56
2017-02-08T01:19:47.958Z,20.53
2017-02-08T01:20:28.458Z,20.56
2017-02-08T01:21:08.946Z,20.58
2017-02-08T01:21:49.454Z,20.57
2017-02-08T01:22:29.954Z,20.42
2017-02-08T01:23:10.457Z,20.56
2017-02-08T01:23:50.951Z,20.58
2017-02-08T01:24:31.453Z,20.49
2017-02-08T01:25:11.934Z,20.56
2017-02-08T01:25:52.433Z,20.54
2017-02-08T01:26:32.924Z,20.61
2017-02-08T01:27:13.424Z,20.56
2017-02-08T01:27:53.906Z,20.57
2017-02-08T01:28:34.402Z,20.54
2017-02-08T01:29:14.903Z,20.56
2017-02-08T01:29:55.392Z,20.56
2017-02-08T01:30:35.876Z,20.54
2017-02-08T01:31:16.368Z,20.57
2017-02-08T01:31:56.871Z,20.53
2017-02-08T01:32:37.354Z,20.56
2017-02-08T01:33:17.848Z,20.57
2017-02-08T01:33:58.343Z,20.56
2017-02-08T01:34:38.828Z,20.54
2017-02-08T01:35:19.324Z,20.63
2017-02-08T01:35:59.815Z,20.57
2017-02-08T01:36:40.310Z,20.58
2017-02-08T01:37:20.791Z,20.57
2017-02-08T01:38:01.280Z,20.51
2017-02-08T01:38:41.778Z,20.53
2017-02-08T01:39:22.280Z,20.54
2017-02-08T01:40:02.791Z,20.51
2017-02-08T01:40:43.284Z,20.54
2017-02-08T01:41:23.783Z,20.56
2017-02-08T01:42:04.270Z,20.56
2017-02-08T01:42:44.757Z,20.56
2017-02-08T01:43:25.242Z,20.44
2017-02-08T01:44:05.736Z,20.56
2017-02-08T01:44:46.216Z,20.56
2017-02-08T01:45:26.722Z,20.56
2017-02-08T01:46:07.205Z,20.53
2017-02-08T01:46:47.699Z,20.53
2017-02-08T01:47:28.202Z,20.56
2017-02-08T01:48:08.680Z,20.53
2017-02-08T01:48:49.180Z,20.51
2017-02-08T01:49:29.673Z,20.49
2017-02-08T01:50:10.168Z,20.56
2017-02-08T01:50:50.668Z,20.53
2017-02-08T01:51:31.167Z,20.44
2017-02-08T01:52:11.662Z,20.48
2017-02-08T01:52:52.168Z,20.42
2017-02-08T01:53:32.674Z,20.51
2017-02-08T01:54:13.174Z,20.6
2017-02-08T01:54:53.669Z,20.58
2017-02-08T01:55:34.160Z,20.58
2017-02-08T01:56:14.668Z,20.57
2017-02-08T01:56:55.159Z,20.56
2017-02-08T01:57:35.661Z,20.56
2017-02-08T01:58:16.153Z,20.42
2017-02-08T01:58:56.643Z,20.54
2017-02-08T01:59:37.142Z,20.53
2017-02-08T02:00:17.631Z,20.44
2017-02-08T02:00:58.114Z,20.56
2017-02-08T02:01:38.612Z,20.57
2017-02-08T02:02:19.112Z,20.57
2017-02-08T02:02:59.605Z,20.51
2017-02-08T02:03:40.112Z,20.51
2017-02-08T02:04:20.596Z,20.54
2017-02-08T02:05:01.085Z,20.58
2017-02-08T02:05:41.567Z,20.56
2017-02-08T02:06:22.619Z,20.49
2017-02-08T02:07:03.122Z,20.48
2017-02-08T02:07:43.618Z,20.53
2017-02-08T02:08:24.102Z,20.51
2017-02-08T02:09:04.614Z,20.57
2017-02-08T02:09:45.120Z,20.53
2017-02-08T02:10:25.616Z,20.54
2017-02-08T02:11:06.115Z,20.49
2017-02-08T02:11:46.611Z,20.51
2017-02-08T02:12:27.095Z,20.53
2017-02-08T02:13:07.604Z,20.46
2017-02-08T02:13:48.100Z,20.54
2017-02-08T02:14:28.591Z,20.44
2017-02-08T02:15:09.077Z,20.44
2017-02-08T02:15:49.579Z,20.56
2017-02-08T02:16:30.067Z,20.53
2017-02-08T02:17:10.553Z,20.44
2017-02-08T02:17:51.058Z,20.53
2017-02-08T02:18:31.550Z,20.58
2017-02-08T02:19:12.034Z,20.53
2017-02-08T02:19:52.526Z,20.56
2017-02-08T02:20:33.026Z,20.57
2017-02-08T02:21:13.512Z,20.6
2017-02-08T02:21:53.992Z,20.56
2017-02-08T02:22:34.485Z,20.49
2017-02-08T02:23:14.966Z,20.56
2017-02-08T02:23:55.477Z,20.57
2017-02-08T02:24:35.949Z,20.54
2017-02-08T02:25:16.437Z,20.41
2017-02-08T02:25:56.937Z,20.53
2017-02-08T02:26:37.451Z,20.57
2017-02-08T02:27:17.930Z,20.48
2017-02-08T02:27:58.439Z,20.54
2017-02-08T02:28:38.949Z,20.46
2017-02-08T02:29:19.446Z,20.54
2017-02-08T02:29:59.941Z,20.49
2017-02-08T02:30:40.427Z,20.53
2017-02-08T02:31:21.075Z,20.51
2017-02-08T02:32:01.563Z,20.51
2017-02-08T02:32:42.050Z,20.56
2017-02-08T02:33:22.531Z,20.56
2017-02-08T02:34:03.035Z,20.49
2017-02-08T02:34:43.539Z,20.56
2017-02-08T02:35:24.039Z,20.49
2017-02-08T02:36:04.542Z,20.49
2017-02-08T02:36:45.038Z,20.56
2017-02-08T02:37:25.537Z,20.56
2017-02-08T02:38:06.039Z,20.56
2017-02-08T02:38:46.528Z,20.49
2017-02-08T02:39:27.027Z,20.49
2017-02-08T02:40:07.543Z,20.57
2017-02-08T02:40:48.037Z,20.44
2017-02-08T02:41:28.529Z,20.53
2017-02-08T02:42:09.029Z,20.48
2017-02-08T02:42:49.524Z,20.54
2017-02-08T02:43:30.011Z,20.46
2017-02-08T02:44:10.505Z,20.53
2017-02-08T02:44:50.999Z,20.46
2017-02-08T02:45:31.482Z,20.51
2017-02-08T02:46:11.973Z,20.56
2017-02-08T02:46:52.484Z,20.56
2017-02-08T02:47:32.978Z,20.57
2017-02-08T02:48:13.475Z,20.54
2017-02-08T02:48:53.967Z,20.57
2017-02-08T02:49:34.499Z,20.57
2017-02-08T02:51:47.320Z,20.49
2017-02-08T02:52:27.810Z,20.56
2017-02-08T02:53:08.305Z,20.57
2017-02-08T02:53:48.810Z,20.53
2017-02-08T02:54:29.293Z,20.51
2017-02-08T02:55:09.782Z,20.44
2017-02-08T02:55:50.288Z,20.49
2017-02-08T02:56:30.775Z,20.54
2017-02-08T02:57:11.280Z,20.44
2017-02-08T02:57:51.769Z,20.49
2017-02-08T02:58:32.257Z,20.56
2017-02-08T02:59:12.739Z,20.41
2017-02-08T02:59:53.236Z,20.49
2017-02-08T03:00:33.726Z,20.44
2017-02-08T03:01:14.220Z,20.54
2017-02-08T03:01:54.740Z,20.51
2017-02-08T03:02:35.250Z,20.53
2017-02-08T03:03:15.733Z,20.51
2017-02-08T03:03:56.216Z,20.51
2017-02-08T03:04:36.699Z,20.51
2017-02-08T03:05:17.198Z,20.51
2017-02-08T03:05:57.698Z,20.42
2017-02-08T03:06:38.179Z,20.54
2017-02-08T03:07:18.670Z,20.48
2017-02-08T03:07:59.172Z,20.53
2017-02-08T03:08:39.668Z,20.56
2017-02-08T03:09:20.166Z,20.49
2017-02-08T03:10:00.672Z,20.49
2017-02-08T03:10:41.161Z,20.51
2017-02-08T03:11:21.666Z,20.51
2017-02-08T03:12:02.167Z,20.53
2017-02-08T03:12:42.657Z,20.53
2017-02-08T03:13:23.142Z,20.48
2017-02-08T03:14:03.610Z,20.53
2017-02-08T03:14:44.137Z,20.51
2017-02-08T03:15:24.620Z,20.44
2017-02-08T03:16:05.236Z,20.48
2017-02-08T03:16:45.714Z,20.48
2017-02-08T03:17:26.218Z,20.54
2017-02-08T03:18:06.714Z,20.48
2017-02-08T03:18:47.202Z,20.56
2017-02-08T03:19:27.688Z,20.49
2017-02-08T03:20:08.182Z,20.54
2017-02-08T03:20:48.685Z,20.56
2017-02-08T03:21:29.176Z,20.44
2017-02-08T03:22:09.683Z,20.54
2017-02-08T03:22:50.163Z,20.53
2017-02-08T03:23:30.649Z,20.54
2017-02-08T03:24:11.156Z,20.49
2017-02-08T03:24:51.656Z,20.48
2017-02-08T03:25:32.159Z,20.49
2017-02-08T03:26:12.655Z,20.49
2017-02-08T03:26:53.156Z,20.49
2017-02-08T03:27:33.673Z,20.49
2017-02-08T03:28:14.155Z,20.51
2017-02-08T03:28:54.644Z,20.48
2017-02-08T03:29:35.131Z,20.57
2017-02-08T03:30:15.622Z,20.53
2017-02-08T03:30:56.128Z,20.53
2017-02-08T03:31:36.612Z,20.48
2017-02-08T03:32:17.123Z,20.46
2017-02-08T03:32:57.607Z,20.42
2017-02-08T03:33:38.102Z,20.49
2017-02-08T03:34:18.593Z,20.49
2017-02-08T03:34:59.091Z,20.54
2017-02-08T03:35:39.582Z,20.51
2017-02-08T03:36:20.066Z,20.49
2017-02-08T03:37:00.565Z,20.51
2017-02-08T03:37:41.047Z,20.48
2017-02-08T03:38:21.541Z,20.53
2017-02-08T03:39:02.038Z,20.51
2017-02-08T03:39:42.538Z,20.54
2017-02-08T03:40:23.031Z,20.49
2017-02-08T03:41:03.542Z,20.51
2017-02-08T03:41:44.035Z,20.42
2017-02-08T03:42:24.713Z,20.54
2017-02-08T03:43:05.220Z,20.48
2017-02-08T03:43:45.696Z,20.53
2017-02-08T03:44:26.197Z,20.51
2017-02-08T03:45:06.689Z,20.51
2017-02-08T03:45:47.175Z,20.49
2017-02-08T03:46:27.661Z,20.51
2017-02-08T03:47:08.142Z,20.48
2017-02-08T03:47:48.639Z,20.53
2017-02-08T03:48:29.120Z,20.54
2017-02-08T03:49:09.622Z,20.51
2017-02-08T03:49:50.111Z,20.54
2017-02-08T03:50:30.593Z,20.51
2017-02-08T03:51:11.107Z,20.53
2017-02-08T03:51:51.579Z,20.51
2017-02-08T03:52:32.064Z,20.48
2017-02-08T03:53:12.562Z,20.4
2017-02-08T03:53:53.054Z,20.42
2017-02-08T03:54:34.339Z,20.41
2017-02-08T03:55:14.844Z,20.49
2017-02-08T03:55:55.325Z,20.53
2017-02-08T03:56:35.820Z,20.53
2017-02-08T03:57:16.316Z,20.48
2017-02-08T03:57:56.815Z,20.44
2017-02-08T03:58:37.295Z,20.57
2017-02-08T03:59:17.781Z,20.48
2017-02-08T03:59:58.266Z,20.53
2017-02-08T04:00:38.763Z,20.51
2017-02-08T04:01:19.261Z,20.41
2017-02-08T04:01:59.749Z,20.51
2017-02-08T04:02:40.236Z,20.49
2017-02-08T04:03:20.732Z,20.51
2017-02-08T04:04:01.222Z,20.51
2017-02-08T04:04:41.723Z,20.51
2017-02-08T04:05:22.211Z,20.51
2017-02-08T04:06:02.706Z,20.49
2017-02-08T04:06:43.193Z,20.56
2017-02-08T04:07:23.683Z,20.57
2017-02-08T04:08:04.176Z,20.53
2017-02-08T04:08:44.675Z,20.42
2017-02-08T04:09:25.182Z,20.49
2017-02-08T04:10:05.678Z,20.46
2017-02-08T04:10:46.172Z,20.56
2017-02-08T04:11:26.673Z,20.51
2017-02-08T04:12:07.173Z,20.49
2017-02-08T04:12:47.670Z,20.51
2017-02-08T04:13:28.166Z,20.54
2017-02-08T04:14:08.671Z,20.53
2017-02-08T04:14:49.158Z,20.51
2017-02-08T04:15:29.659Z,20.53
2017-02-08T04:16:10.152Z,20.57
2017-02-08T04:16:50.634Z,20.49
2017-02-08T04:17:31.127Z,20.54
2017-02-08T04:18:11.643Z,20.53
2017-02-08T04:18:52.139Z,20.56
2017-02-08T04:19:32.620Z,20.49
2017-02-08T04:20:13.103Z,20.58
2017-02-08T04:20:53.602Z,20.53
2017-02-08T04:21:34.089Z,20.57
2017-02-08T04:22:14.585Z,20.54
2017-02-08T04:22:55.066Z,20.42
2017-02-08T04:23:35.553Z,20.49
2017-02-08T04:24:16.051Z,20.51
2017-02-08T04:24:56.554Z,20.56
2017-02-08T04:25:37.039Z,20.53
2017-02-08T04:26:17.532Z,20.56
2017-02-08T04:26:58.030Z,20.53
2017-02-08T04:27:38.521Z,20.51
2017-02-08T04:28:19.017Z,20.49
2017-02-08T04:28:59.506Z,20.49
2017-02-08T04:29:40.006Z,20.53
2017-02-08T04:30:20.505Z,20.53
2017-02-08T04:31:00.990Z,20.53
2017-02-08T04:31:41.479Z,20.51
2017-02-08T04:32:21.970Z,20.53
2017-02-08T04:33:02.476Z,20.51
2017-02-08T04:33:42.950Z,20.53
2017-02-08T04:34:23.452Z,20.49
2017-02-08T04:35:03.946Z,20.51
2017-02-08T04:35:44.439Z,20.46
2017-02-08T04:36:24.925Z,20.58
2017-02-08T04:37:05.412Z,20.53
2017-02-08T04:37:45.901Z,20.51
2017-02-08T04:38:26.395Z,20.54
2017-02-08T04:39:06.894Z,20.42
2017-02-08T04:39:47.394Z,20.56
2017-02-08T04:40:27.880Z,20.42
2017-02-08T04:41:08.397Z,20.49
2017-02-08T04:41:48.892Z,20.48
2017-02-08T04:42:29.395Z,20.49
2017-02-08T04:43:09.893Z,20.51
2017-02-08T04:43:50.391Z,20.44
2017-02-08T04:44:30.881Z,20.56
2017-02-08T04:45:11.370Z,20.54
2017-02-08T04:45:51.858Z,20.53
2017-02-08T04:46:32.358Z,20.57
2017-02-08T04:47:12.835Z,20.51
2017-02-08T04:47:53.326Z,20.51
2017-02-08T04:48:33.811Z,20.48
2017-02-08T04:49:14.302Z,20.48
2017-02-08T04:49:54.812Z,20.54
2017-02-08T04:50:35.293Z,20.53
2017-02-08T04:51:15.788Z,20.53
2017-02-08T04:51:56.279Z,20.44
2017-02-08T04:52:36.768Z,20.46
2017-02-08T04:53:17.307Z,20.46
2017-02-08T04:53:57.804Z,20.54
2017-02-08T04:54:38.289Z,20.49
2017-02-08T04:55:18.782Z,20.53
2017-02-08T04:55:59.271Z,20.51
2017-02-08T04:56:39.774Z,20.46
2017-02-08T04:57:20.276Z,20.53
2017-02-08T04:58:00.764Z,20.58
2017-02-08T04:58:41.255Z,20.49
2017-02-08T04:59:21.745Z,20.46
2017-02-08T05:00:02.240Z,20.53
2017-02-08T05:00:42.723Z,20.44
2017-02-08T05:01:23.209Z,20.54
2017-02-08T05:02:03.715Z,20.44
2017-02-08T05:02:44.197Z,20.44
2017-02-08T05:03:24.691Z,20.46
2017-02-08T05:04:05.179Z,20.4
2017-02-08T05:04:45.677Z,20.46
2017-02-08T05:05:26.166Z,20.42
2017-02-08T05:06:06.652Z,20.44
2017-02-08T05:06:47.167Z,20.41
2017-02-08T05:07:27.650Z,20.46
2017-02-08T05:08:08.142Z,20.44
2017-02-08T05:08:48.624Z,20.37
2017-02-08T05:09:29.116Z,20.41
2017-02-08T05:10:09.612Z,20.46
2017-02-08T05:10:50.098Z,20.42
2017-02-08T05:11:30.588Z,20.41
2017-02-08T05:12:11.081Z,20.35
2017-02-08T05:12:51.577Z,20.46
2017-02-08T05:13:32.098Z,20.44
2017-02-08T05:14:12.583Z,20.41
2017-02-08T05:14:53.078Z,20.49
2017-02-08T05:15:33.575Z,20.46
2017-02-08T05:16:14.055Z,20.44
2017-02-08T05:16:54.535Z,20.42
2017-02-08T05:17:35.027Z,20.46
2017-02-08T05:18:15.539Z,20.44
2017-02-08T05:18:56.020Z,20.41
2017-02-08T05:19:36.499Z,20.44
2017-02-08T05:20:16.996Z,20.41
2017-02-08T05:20:57.500Z,20.46
2017-02-08T05:21:37.992Z,20.49
2017-02-08T05:22:18.495Z,20.46
2017-02-08T05:22:58.984Z,20.48
2017-02-08T05:23:39.470Z,20.46
2017-02-08T05:24:19.968Z,20.41
2017-02-08T05:25:00.468Z,20.48
2017-02-08T05:25:40.953Z,20.51
2017-02-08T05:26:21.449Z,20.53
2017-02-08T05:27:01.945Z,20.42
2017-02-08T05:27:42.431Z,20.48
2017-02-08T05:28:22.919Z,20.46
2017-02-08T05:29:03.402Z,20.53
2017-02-08T05:29:43.893Z,20.44
2017-02-08T05:30:24.389Z,20.42
2017-02-08T05:31:04.878Z,20.44
2017-02-08T05:31:45.392Z,20.46
2017-02-08T05:32:25.884Z,20.46
2017-02-08T05:33:06.386Z,20.48
2017-02-08T05:33:46.884Z,20.41
2017-02-08T05:34:27.388Z,20.51
2017-02-08T05:35:07.872Z,20.44
2017-02-08T05:35:48.356Z,20.41
2017-02-08T05:36:28.852Z,20.41
2017-02-08T05:37:09.355Z,20.4
2017-02-08T05:37:49.847Z,20.44
2017-02-08T05:38:30.352Z,20.51
2017-02-08T05:39:10.842Z,20.41
2017-02-08T05:39:51.347Z,20.44
2017-02-08T05:40:31.829Z,20.48
2017-02-08T05:41:12.325Z,20.48
2017-02-08T05:41:52.825Z,20.35
2017-02-08T05:42:33.316Z,20.41
2017-02-08T05:43:13.804Z,20.41
2017-02-08T05:43:54.297Z,20.4
2017-02-08T05:44:34.797Z,20.42
2017-02-08T05:45:15.281Z,20.44
2017-02-08T05:45:55.778Z,20.44
2017-02-08T05:46:36.272Z,20.49
2017-02-08T05:47:16.755Z,20.41
2017-02-08T05:47:57.244Z,20.42
2017-02-08T05:48:37.738Z,20.4
2017-02-08T05:49:18.240Z,20.42
2017-02-08T05:49:58.726Z,20.41
2017-02-08T05:50:39.223Z,20.42
2017-02-08T05:51:19.703Z,20.44
2017-02-08T05:52:00.206Z,20.44
2017-02-08T05:52:40.724Z,20.6
2017-02-08T05:53:21.218Z,20.54
2017-02-08T05:54:01.709Z,20.51
2017-02-08T05:54:42.287Z,20.48
2017-02-08T05:55:22.785Z,20.44
2017-02-08T05:56:03.257Z,20.46
2017-02-08T05:56:43.751Z,20.44
2017-02-08T05:57:24.258Z,20.44
2017-02-08T05:58:04.756Z,20.46
2017-02-08T05:58:45.260Z,20.49
2017-02-08T05:59:25.749Z,20.51
2017-02-08T06:00:06.243Z,20.53
2017-02-08T06:00:46.761Z,20.42
2017-02-08T06:01:27.255Z,20.42
2017-02-08T06:02:07.741Z,20.44
2017-02-08T06:02:48.233Z,20.49
2017-02-08T06:03:28.711Z,20.44
2017-02-08T06:04:09.209Z,20.44
2017-02-08T06:04:49.706Z,20.41
2017-02-08T06:05:30.197Z,20.42
2017-02-08T06:06:10.705Z,20.44
2017-02-08T06:06:51.199Z,20.35
2017-02-08T06:07:31.702Z,20.44
2017-02-08T06:08:12.198Z,20.51
2017-02-08T06:08:52.699Z,20.42
2017-02-08T06:09:33.185Z,20.44
2017-02-08T06:10:13.674Z,20.44
2017-02-08T06:10:54.171Z,20.44
2017-02-08T06:11:34.672Z,20.44
2017-02-08T06:12:15.157Z,20.4
2017-02-08T06:12:55.664Z,20.46
2017-02-08T06:13:36.145Z,20.56
2017-02-08T06:14:16.637Z,20.46
2017-02-08T06:14:57.144Z,20.4
2017-02-08T06:15:37.620Z,20.46
2017-02-08T06:16:18.119Z,20.54
2017-02-08T06:16:58.613Z,20.54
2017-02-08T06:17:39.112Z,20.44
2017-02-08T06:18:19.595Z,20.42
2017-02-08T06:19:00.090Z,20.41
2017-02-08T06:19:40.590Z,20.38
2017-02-08T06:20:21.071Z,20.37
2017-02-08T06:21:01.562Z,20.35
2017-02-08T06:21:42.055Z,20.35
2017-02-08T06:22:22.556Z,20.49
2017-02-08T06:23:03.038Z,20.48
2017-02-08T06:23:43.526Z,20.53
2017-02-08T06:24:24.035Z,20.53
2017-02-08T06:25:04.725Z,20.4
2017-02-08T06:25:45.237Z,20.46
2017-02-08T06:26:25.732Z,20.42
2017-02-08T06:27:06.240Z,20.42
2017-02-08T06:27:46.726Z,20.44
2017-02-08T06:28:27.231Z,20.51
2017-02-08T06:29:07.735Z,20.42
2017-02-08T06:29:48.231Z,20.44
2017-02-08T06:30:28.728Z,20.4
2017-02-08T06:31:09.243Z,20.48
2017-02-08T06:31:49.730Z,20.38
2017-02-08T06:32:30.229Z,20.4
2017-02-08T06:33:10.720Z,20.48
2017-02-08T06:33:51.212Z,20.35
2017-02-08T06:34:31.734Z,20.49
2017-02-08T06:35:12.227Z,20.38
2017-02-08T06:35:52.719Z,20.44
2017-02-08T06:36:33.218Z,20.46
2017-02-08T06:37:13.728Z,20.4
2017-02-08T06:37:54.225Z,20.41
2017-02-08T06:38:34.712Z,20.42
2017-02-08T06:39:15.199Z,20.53
2017-02-08T06:39:55.684Z,20.42
2017-02-08T06:40:36.199Z,20.42
2017-02-08T06:41:16.683Z,20.46
2017-02-08T06:41:57.192Z,20.41
2017-02-08T06:42:37.680Z,20.51
2017-02-08T06:43:18.172Z,20.48
2017-02-08T06:43:58.670Z,20.41
2017-02-08T06:44:39.151Z,20.46
2017-02-08T06:45:19.645Z,20.38
2017-02-08T06:46:00.127Z,20.32
2017-02-08T06:46:40.634Z,20.41
2017-02-08T06:47:21.118Z,20.46
2017-02-08T06:48:01.618Z,20.41
2017-02-08T06:48:42.115Z,20.4
2017-02-08T06:49:22.604Z,20.38
2017-02-08T06:50:03.105Z,20.37
2017-02-08T06:50:43.585Z,20.37
2017-02-08T06:51:24.088Z,20.34
2017-02-08T06:52:04.785Z,20.34
2017-02-08T06:52:45.284Z,20.35
2017-02-08T06:53:25.769Z,20.41
2017-02-08T06:54:06.288Z,20.46
2017-02-08T06:54:46.783Z,20.37
2017-02-08T06:55:27.287Z,20.34
2017-02-08T06:56:07.783Z,20.48
2017-02-08T06:56:48.283Z,20.46
2017-02-08T06:57:28.793Z,20.46
2017-02-08T06:58:09.283Z,20.54
2017-02-08T06:58:49.764Z,20.41
2017-02-08T06:59:30.257Z,20.57
2017-02-08T07:00:10.752Z,20.44
2017-02-08T07:00:51.253Z,20.51
2017-02-08T07:01:31.757Z,20.57
2017-02-08T07:02:12.242Z,20.53
2017-02-08T07:02:53.602Z,20.6
2017-02-08T07:03:34.093Z,20.64
2017-02-08T07:04:14.591Z,20.61
2017-02-08T07:04:55.096Z,20.61
2017-02-08T07:05:35.593Z,20.61
2017-02-08T07:06:16.089Z,20.63
2017-02-08T07:06:56.570Z,20.56
2017-02-08T07:07:37.068Z,20.64
2017-02-08T07:08:17.566Z,20.6
2017-02-08T07:08:58.058Z,20.61
2017-02-08T07:09:38.558Z,20.75
2017-02-08T07:10:19.067Z,20.67
2017-02-08T07:10:59.563Z,20.71
2017-02-08T07:11:40.102Z,20.61
2017-02-08T07:12:20.539Z,20.68
2017-02-08T07:13:01.022Z,20.79
2017-02-08T07:13:41.529Z,20.74
2017-02-08T07:14:22.015Z,20.64
2017-02-08T07:15:02.530Z,20.71
2017-02-08T07:15:43.005Z,20.76
2017-02-08T07:16:23.513Z,20.66
2017-02-08T07:17:04.007Z,20.75
2017-02-08T07:17:44.497Z,20.75
2017-02-08T07:18:24.999Z,20.66
2017-02-08T07:19:05.508Z,20.66
2017-02-08T07:19:46.005Z,20.64
2017-02-08T07:20:26.501Z,20.72
2017-02-08T07:21:07.001Z,20.66
2017-02-08T07:21:47.498Z,20.72
2017-02-08T07:22:28.039Z,20.68
2017-02-08T07:23:08.536Z,20.67
2017-02-08T07:23:50.647Z,20.67
2017-02-08T07:24:31.139Z,20.74
2017-02-08T07:25:11.633Z,20.76
2017-02-08T07:25:52.127Z,20.79
2017-02-08T07:26:32.614Z,20.76
2017-02-08T07:27:13.104Z,20.79
2017-02-08T07:27:53.602Z,20.83
2017-02-08T07:28:34.103Z,20.81
2017-02-08T07:29:14.605Z,20.74
2017-02-08T07:29:55.088Z,20.85
2017-02-08T07:30:35.582Z,20.81
2017-02-08T07:31:16.078Z,20.91
2017-02-08T07:31:56.569Z,20.9
2017-02-08T07:32:37.070Z,20.75
2017-02-08T07:33:17.570Z,20.72
2017-02-08T07:33:58.133Z,20.78
2017-02-08T07:34:38.628Z,20.78
2017-02-08T07:35:19.111Z,20.78
2017-02-08T07:35:59.620Z,20.75
2017-02-08T07:36:40.124Z,20.75
2017-02-08T07:37:20.625Z,20.82
2017-02-08T07:38:01.112Z,20.85
2017-02-08T07:38:41.601Z,20.78
2017-02-08T07:39:22.095Z,20.72
2017-02-08T07:40:02.594Z,20.81
2017-02-08T07:40:43.093Z,20.81
2017-02-08T07:41:23.590Z,20.76
2017-02-08T07:42:04.080Z,20.76
2017-02-08T07:42:44.577Z,20.85
2017-02-08T07:43:25.073Z,20.82
2017-02-08T07:44:05.584Z,20.82
2017-02-08T07:44:46.067Z,20.72
2017-02-08T07:45:26.558Z,20.78
2017-02-08T07:46:07.053Z,20.79
2017-02-08T07:46:47.554Z,20.82
2017-02-08T07:47:28.061Z,20.79
2017-02-08T07:48:08.559Z,20.78
2017-02-08T07:48:49.066Z,20.79
2017-02-08T07:49:29.569Z,20.79
2017-02-08T07:50:10.064Z,20.78
2017-02-08T07:50:50.567Z,20.75
2017-02-08T07:51:31.063Z,20.76
2017-02-08T07:52:11.556Z,20.76
2017-02-08T07:52:52.058Z,20.79
2017-02-08T07:53:32.556Z,20.78
2017-02-08T07:54:13.061Z,20.85
2017-02-08T07:54:53.554Z,20.83
2017-02-08T07:55:34.058Z,20.81
2017-02-08T07:56:14.551Z,20.78
2017-02-08T07:56:55.055Z,20.82
2017-02-08T07:57:35.555Z,20.85
2017-02-08T07:58:16.056Z,20.91
2017-02-08T07:58:56.560Z,20.91
2017-02-08T07:59:37.054Z,20.97
2017-02-08T08:00:17.535Z,20.85
2017-02-08T08:00:58.027Z,20.86
2017-02-08T08:01:38.707Z,20.88
2017-02-08T08:02:19.195Z,20.9
2017-02-08T08:02:59.698Z,20.9
2017-02-08T08:03:40.199Z,20.91
2017-02-08T08:04:20.701Z,20.91
2017-02-08T08:05:01.191Z,20.88
2017-02-08T08:05:41.699Z,20.9
2017-02-08T08:06:22.189Z,20.93
2017-02-08T08:07:02.690Z,20.88
2017-02-08T08:07:43.194Z,20.94
2017-02-08T08:08:23.697Z,20.94
2017-02-08T08:09:04.193Z,20.91
2017-02-08T08:09:44.696Z,20.9
2017-02-08T08:10:25.215Z,20.9
2017-02-08T08:11:05.696Z,20.9
2017-02-08T08:11:46.197Z,20.93
2017-02-08T08:12:26.682Z,20.93
2017-02-08T08:13:07.195Z,20.91
2017-02-08T08:13:47.693Z,20.93
2017-02-08T08:14:28.176Z,20.94
2017-02-08T08:15:08.665Z,20.98
2017-02-08T08:15:49.163Z,20.94
2017-02-08T08:16:29.663Z,20.93
2017-02-08T08:17:10.171Z,20.94
2017-02-08T08:17:50.635Z,20.97
2017-02-08T08:18:31.135Z,20.94
2017-02-08T08:19:11.629Z,20.93
2017-02-08T08:19:52.118Z,20.98
2017-02-08T08:20:32.609Z,20.97
2017-02-08T08:21:13.212Z,20.98
2017-02-08T08:21:53.709Z,20.98
2017-02-08T08:22:34.208Z,20.96
2017-02-08T08:23:14.676Z,20.94
2017-02-08T08:23:55.187Z,20.96
2017-02-08T08:24:35.679Z,20.97
2017-02-08T08:25:16.167Z,21
2017-02-08T08:25:56.650Z,20.98
2017-02-08T08:26:37.146Z,21
2017-02-08T08:27:17.747Z,21.06
2017-02-08T08:27:58.229Z,21
2017-02-08T08:28:38.721Z,20.96
2017-02-08T08:29:19.226Z,21.08
2017-02-08T08:29:59.721Z,21.09
2017-02-08T08:30:40.226Z,21.11
2017-02-08T08:31:20.719Z,21.06
2017-02-08T08:32:01.201Z,21.15
2017-02-08T08:32:41.700Z,21.04
2017-02-08T08:33:22.191Z,21.03
2017-02-08T08:34:02.680Z,21.06
2017-02-08T08:34:43.168Z,21.09
2017-02-08T08:35:23.681Z,21.04
2017-02-08T08:36:04.176Z,21.08
2017-02-08T08:36:44.650Z,21.01
2017-02-08T08:37:25.147Z,21.13
2017-02-08T08:38:05.638Z,21.03
2017-02-08T08:38:46.116Z,21.04
2017-02-08T08:39:26.612Z,21.03
2017-02-08T08:40:07.119Z,21.08
2017-02-08T08:40:47.618Z,20.98
2017-02-08T08:41:28.111Z,21.08
2017-02-08T08:42:08.614Z,21.11
2017-02-08T08:42:49.106Z,21.03
2017-02-08T08:43:29.607Z,21.01